createdAt,value
2019-05-13T00:00:23.366Z,2.03
2019-05-13T00:02:48.331Z,1.47
2019-05-13T00:05:14.764Z,1.70
2019-05-13T00:07:40.246Z,1.50
2019-05-13T00:10:07.388Z,1.87
2019-05-13T00:12:32.850Z,1.47
2019-05-13T00:14:58.189Z,1.57
2019-05-13T00:17:23.769Z,1.80
2019-05-13T00:19:49.093Z,2.03
2019-05-13T00:22:14.478Z,2.00
2019-05-13T00:24:39.849Z,2.03
2019-05-13T00:27:05.506Z,2.40
2019-05-13T00:29:31.081Z,2.20
2019-05-13T00:31:56.554Z,2.27
2019-05-13T00:34:24.214Z,2.50
2019-05-13T00:36:49.590Z,2.30
2019-05-13T00:39:15.281Z,2.20
2019-05-13T00:41:40.913Z,2.30
2019-05-13T00:44:06.273Z,2.03
2019-05-13T00:46:33.853Z,1.93
2019-05-13T00:48:58.617Z,2.00
2019-05-13T00:51:24.398Z,1.93
2019-05-13T00:53:50.798Z,1.70
2019-05-13T00:56:16.440Z,1.80
2019-05-13T00:58:43.721Z,1.60
2019-05-13T01:01:09.187Z,1.67
2019-05-13T01:03:34.622Z,1.67
2019-05-13T01:05:59.988Z,1.60
2019-05-13T01:08:25.694Z,1.73
2019-05-13T01:10:53.523Z,2.03
2019-05-13T01:13:18.063Z,2.13
2019-05-13T01:15:44.370Z,1.80
2019-05-13T01:18:09.899Z,1.63
2019-05-13T01:20:36.594Z,1.80
2019-05-13T01:23:03.650Z,1.77
2019-05-13T01:25:29.338Z,2.00
2019-05-13T01:27:56.166Z,2.13
2019-05-13T01:30:23.624Z,1.80
2019-05-13T01:32:48.637Z,1.60
2019-05-13T01:35:15.031Z,1.87
2019-05-13T01:37:45.324Z,1.70
2019-05-13T01:40:07.459Z,1.87
2019-05-13T01:42:33.674Z,1.40
2019-05-13T01:44:59.058Z,1.50
2019-05-13T01:47:24.464Z,1.50
2019-05-13T01:49:49.774Z,1.73
2019-05-13T01:52:15.123Z,1.67
2019-05-13T01:54:40.502Z,1.50
2019-05-13T01:57:05.838Z,1.43
2019-05-13T01:59:31.206Z,1.77
2019-05-13T02:01:56.554Z,1.70
2019-05-13T02:04:24.278Z,1.43
2019-05-13T02:06:48.986Z,1.77
2019-05-13T02:09:14.569Z,1.90
2019-05-13T02:11:39.918Z,1.60
2019-05-13T02:14:05.841Z,1.80
2019-05-13T02:16:33.605Z,1.80
2019-05-13T02:18:58.191Z,1.60
2019-05-13T02:21:24.155Z,1.90
2019-05-13T02:23:49.593Z,2.13
2019-05-13T02:26:15.025Z,1.80
2019-05-13T02:28:40.363Z,1.53
2019-05-13T02:31:05.737Z,1.47
2019-05-13T02:33:33.853Z,1.73
2019-05-13T02:35:58.191Z,1.60
2019-05-13T02:38:29.391Z,1.60
2019-05-13T02:40:52.775Z,1.97
2019-05-13T02:43:17.471Z,2.10
2019-05-13T02:45:43.541Z,1.90
2019-05-13T02:48:12.436Z,1.73
2019-05-13T02:50:35.866Z,1.93
2019-05-13T02:53:02.401Z,1.60
2019-05-13T02:55:27.885Z,2.00
2019-05-13T03:02:22.464Z,1.90
2019-05-13T03:06:24.196Z,1.77
2019-05-13T03:27:42.890Z,2.33
2019-05-13T03:31:15.934Z,2.40
2019-05-13T03:34:06.615Z,2.10
2019-05-13T03:40:52.655Z,2.10
2019-05-13T03:43:53.283Z,2.20
2019-05-13T03:47:23.083Z,2.40
2019-05-13T03:50:33.517Z,2.53
2019-05-13T03:53:19.185Z,2.37
2019-05-13T03:56:12.546Z,2.83
2019-05-13T03:59:08.403Z,3.00
2019-05-13T04:02:22.611Z,2.63
2019-05-13T04:05:27.159Z,3.13
2019-05-13T04:08:49.544Z,2.90
2019-05-13T04:11:54.509Z,3.00
2019-05-13T04:15:04.797Z,2.90
2019-05-13T04:21:18.057Z,2.70
2019-05-13T04:24:16.402Z,2.30
2019-05-13T04:27:14.873Z,2.97
2019-05-13T04:33:47.793Z,3.00
2019-05-13T04:36:57.474Z,2.67
2019-05-13T04:39:58.180Z,2.40
2019-05-13T04:43:08.474Z,2.37
2019-05-13T04:46:17.781Z,2.43
2019-05-13T04:49:42.889Z,2.33
2019-05-13T04:56:09.148Z,2.37
2019-05-13T04:58:34.520Z,2.57
2019-05-13T05:01:25.956Z,2.50
2019-05-13T05:04:03.364Z,2.20
2019-05-13T05:06:55.850Z,2.47
2019-05-13T05:10:13.175Z,2.43
2019-05-13T05:12:42.859Z,2.20
2019-05-13T05:15:33.719Z,2.50
2019-05-13T05:18:25.013Z,3.13
2019-05-13T05:21:06.082Z,2.80
2019-05-13T05:24:13.692Z,2.97
2019-05-13T05:27:23.088Z,2.70
2019-05-13T05:30:07.463Z,2.63
2019-05-13T05:33:21.431Z,2.77
2019-05-13T05:36:23.098Z,2.60
2019-05-13T05:39:14.318Z,2.57
2019-05-13T05:41:42.285Z,2.17
2019-05-13T05:44:12.525Z,2.73
2019-05-13T05:46:42.459Z,2.50
2019-05-13T05:49:59.925Z,2.90
2019-05-13T05:57:03.267Z,2.40
2019-05-13T05:59:53.782Z,2.50
2019-05-13T06:03:04.339Z,2.30
2019-05-13T06:06:06.034Z,3.00
2019-05-13T06:08:51.667Z,2.47
2019-05-13T06:11:33.800Z,3.07
2019-05-13T06:14:26.263Z,2.60
2019-05-13T06:17:11.380Z,2.70
2019-05-13T06:24:11.506Z,2.37
2019-05-13T06:27:08.717Z,2.57
2019-05-13T06:29:58.519Z,2.70
2019-05-13T06:32:26.416Z,2.43
2019-05-13T06:34:52.446Z,2.50
2019-05-13T06:37:18.318Z,2.60
2019-05-13T06:39:43.867Z,2.33
2019-05-13T06:42:11.474Z,2.47
2019-05-13T06:44:36.463Z,2.83
2019-05-13T06:47:02.778Z,2.27
2019-05-13T06:49:28.300Z,2.70
2019-05-13T06:51:53.700Z,2.83
2019-05-13T06:54:21.730Z,3.13
2019-05-13T06:56:46.119Z,2.60
2019-05-13T06:59:11.966Z,2.70
2019-05-13T07:01:38.358Z,2.80
2019-05-13T07:04:03.783Z,2.80
2019-05-13T07:06:29.158Z,2.70
2019-05-13T07:08:54.510Z,3.13
2019-05-13T07:11:22.384Z,3.27
2019-05-13T07:13:46.985Z,2.80
2019-05-13T07:16:12.421Z,3.13
2019-05-13T07:18:37.774Z,2.97
2019-05-13T07:21:03.175Z,3.03
2019-05-13T07:23:28.524Z,3.03
2019-05-13T07:25:53.868Z,3.80
2019-05-13T07:28:21.878Z,3.80
2019-05-13T07:30:47.368Z,3.20
2019-05-13T07:33:13.055Z,3.47
2019-05-13T07:35:38.948Z,2.97
2019-05-13T07:38:24.985Z,3.40
2019-05-13T07:41:04.044Z,2.93
2019-05-13T07:43:31.839Z,2.50
2019-05-13T07:45:56.417Z,3.30
2019-05-13T07:48:27.500Z,2.90
2019-05-13T07:50:56.305Z,2.70
2019-05-13T07:53:18.928Z,3.30
2019-05-13T07:55:43.414Z,2.93
2019-05-13T07:58:11.324Z,2.97
2019-05-13T08:00:35.755Z,3.00
2019-05-13T08:03:01.710Z,3.03
2019-05-13T08:05:28.210Z,2.73
2019-05-13T08:07:53.610Z,2.20
2019-05-13T08:10:19.064Z,2.27
2019-05-13T08:12:44.423Z,2.33
2019-05-13T08:15:11.969Z,2.90
2019-05-13T08:17:41.054Z,2.67
2019-05-13T08:20:04.398Z,2.13
2019-05-13T08:22:31.876Z,2.40
2019-05-13T08:24:56.813Z,2.50
2019-05-13T08:27:30.382Z,2.37
2019-05-13T08:29:49.145Z,2.10
2019-05-13T08:32:14.510Z,2.40
2019-05-13T08:34:41.750Z,2.20
2019-05-13T08:37:07.015Z,2.03
2019-05-13T08:39:38.083Z,2.17
2019-05-13T08:42:11.794Z,1.80
2019-05-13T08:44:26.404Z,1.77
2019-05-13T08:46:52.033Z,1.90
2019-05-13T08:49:17.542Z,1.50
2019-05-13T08:51:42.892Z,1.20
2019-05-13T08:54:08.251Z,1.10
2019-05-13T08:56:33.635Z,1.27
2019-05-13T08:59:01.056Z,1.43
2019-05-13T09:01:26.006Z,1.30
2019-05-13T09:03:52.146Z,1.17
2019-05-13T09:06:17.718Z,1.40
2019-05-13T09:08:43.151Z,1.53
2019-05-13T09:11:08.582Z,1.90
2019-05-13T09:13:33.933Z,1.93
2019-05-13T09:16:02.433Z,1.60
2019-05-13T09:18:27.285Z,1.63
2019-05-13T09:20:52.635Z,1.50
2019-05-13T09:23:18.074Z,1.80
2019-05-13T09:25:43.435Z,1.80
2019-05-13T09:28:08.817Z,1.73
2019-05-13T09:30:34.468Z,1.70
2019-05-13T09:33:02.028Z,2.13
2019-05-13T09:35:27.078Z,1.70
2019-05-13T09:37:52.427Z,1.73
2019-05-13T09:40:18.186Z,1.57
2019-05-13T09:42:49.232Z,1.83
2019-05-13T09:45:12.316Z,1.90
2019-05-13T09:47:37.853Z,1.90
2019-05-13T09:50:04.621Z,2.00
2019-05-13T09:52:31.896Z,1.53
2019-05-13T09:54:57.318Z,1.80
2019-05-13T09:57:23.780Z,1.90
2019-05-13T09:59:49.127Z,1.67
2019-05-13T10:02:14.612Z,1.87
2019-05-13T10:04:43.401Z,1.60
2019-05-13T10:07:12.530Z,2.03
2019-05-13T10:09:39.606Z,1.60
2019-05-13T10:12:05.282Z,1.27
2019-05-13T10:14:32.742Z,1.60
2019-05-13T10:16:57.661Z,1.40
2019-05-13T10:19:23.077Z,1.40
2019-05-13T10:21:48.724Z,1.57
2019-05-13T10:24:14.222Z,1.47
2019-05-13T10:26:42.609Z,1.27
2019-05-13T10:29:11.881Z,1.60
2019-05-13T10:31:36.798Z,1.40
2019-05-13T10:34:02.647Z,1.30
2019-05-13T10:36:29.019Z,1.20
2019-05-13T10:38:54.972Z,1.50
2019-05-13T10:41:22.213Z,1.10
2019-05-13T10:43:47.730Z,1.27
2019-05-13T10:46:13.099Z,1.20
2019-05-13T10:48:38.571Z,1.10
2019-05-13T10:51:03.934Z,1.10
2019-05-13T10:53:31.775Z,1.43
2019-05-13T10:55:58.307Z,1.30
2019-05-13T10:58:23.705Z,1.40
2019-05-13T11:00:53.808Z,1.47
2019-05-13T11:03:19.383Z,1.30
2019-05-13T11:05:44.923Z,1.60
2019-05-13T11:08:10.355Z,1.83
2019-05-13T11:10:35.722Z,1.93
2019-05-13T11:13:01.622Z,1.57
2019-05-13T11:15:27.140Z,1.93
2019-05-13T11:17:52.520Z,1.83
2019-05-13T11:20:18.155Z,1.57
2019-05-13T11:22:43.513Z,1.70
2019-05-13T11:25:09.094Z,1.60
2019-05-13T11:27:34.471Z,1.50
2019-05-13T11:30:03.197Z,1.40
2019-05-13T11:32:31.551Z,1.40
2019-05-13T11:34:56.160Z,1.30
2019-05-13T11:37:23.177Z,0.97
2019-05-13T11:39:48.482Z,1.20
2019-05-13T11:42:14.006Z,1.50
2019-05-13T11:44:40.049Z,1.27
2019-05-13T11:47:06.467Z,1.43
2019-05-13T11:49:31.861Z,1.20
2019-05-13T11:51:57.246Z,1.37
2019-05-13T11:54:22.658Z,1.20
2019-05-13T11:56:50.423Z,1.30
2019-05-13T11:59:15.001Z,0.93
2019-05-13T12:01:42.608Z,1.30
2019-05-13T12:04:07.335Z,1.37
2019-05-13T12:06:33.832Z,1.20
2019-05-13T12:09:03.095Z,1.00
2019-05-13T12:11:28.051Z,1.47
2019-05-13T12:13:53.409Z,1.20
2019-05-13T12:16:18.782Z,1.30
2019-05-13T12:18:45.120Z,1.30
2019-05-13T12:21:12.379Z,1.30
2019-05-13T12:23:37.704Z,1.40
2019-05-13T12:26:04.166Z,1.20
2019-05-13T12:28:30.048Z,1.33
2019-05-13T12:30:55.429Z,1.30
2019-05-13T12:33:22.674Z,1.20
2019-05-13T12:35:47.842Z,1.20
2019-05-13T12:38:13.869Z,1.20
2019-05-13T12:40:42.612Z,1.10
2019-05-13T12:43:06.334Z,1.40
2019-05-13T12:45:34.359Z,1.20
2019-05-13T12:48:02.936Z,1.30
2019-05-13T12:50:27.302Z,1.50
2019-05-13T12:52:52.654Z,1.20
2019-05-13T12:55:18.010Z,1.27
2019-05-13T12:57:43.428Z,1.20
2019-05-13T13:00:13.224Z,1.40
2019-05-13T13:02:36.838Z,1.57
2019-05-13T13:05:15.727Z,1.30
2019-05-13T13:07:29.287Z,1.20
2019-05-13T13:09:54.698Z,1.37
2019-05-13T13:12:33.432Z,1.13
2019-05-13T13:14:47.057Z,1.43
2019-05-13T13:17:13.084Z,1.20
2019-05-13T13:19:38.494Z,1.27
2019-05-13T13:22:07.654Z,1.30
2019-05-13T13:24:31.795Z,1.60
2019-05-13T13:26:57.423Z,1.13
2019-05-13T13:29:23.973Z,1.37
2019-05-13T13:31:54.035Z,1.20
2019-05-13T13:34:18.759Z,1.10
2019-05-13T13:36:45.960Z,1.60
2019-05-13T13:39:14.853Z,1.87
2019-05-13T13:41:38.235Z,1.20
2019-05-13T13:44:05.454Z,1.20
2019-05-13T13:46:41.899Z,1.40
2019-05-13T13:48:58.220Z,1.23
2019-05-13T13:51:26.343Z,1.07
2019-05-13T13:53:56.124Z,1.13
2019-05-13T13:56:17.539Z,1.30
2019-05-13T13:58:44.024Z,1.10
2019-05-13T14:01:17.752Z,1.33
2019-05-13T14:03:36.577Z,1.30
2019-05-13T14:06:06.187Z,1.20
2019-05-13T14:08:29.101Z,3.20
2019-05-13T14:10:54.510Z,1.50
2019-05-13T14:13:21.824Z,1.00
2019-05-13T14:15:46.966Z,1.00
2019-05-13T14:18:14.980Z,1.13
2019-05-13T14:20:43.315Z,0.97
2019-05-13T14:23:08.749Z,1.30
2019-05-13T14:25:34.613Z,2.17
2019-05-13T14:28:00.018Z,0.90
2019-05-13T14:30:25.597Z,1.03
2019-05-13T14:32:51.903Z,4.03
2019-05-13T14:35:17.718Z,1.50
2019-05-13T14:37:43.094Z,0.70
2019-05-13T14:40:11.956Z,1.00
2019-05-13T14:42:36.284Z,1.00
2019-05-13T14:45:02.214Z,1.00
2019-05-13T14:47:27.593Z,2.20
2019-05-13T14:49:54.246Z,1.13
2019-05-13T14:52:22.273Z,1.30
2019-05-13T14:54:47.780Z,1.00
2019-05-13T14:57:14.941Z,1.10
2019-05-13T14:59:43.658Z,0.93
2019-05-13T15:02:11.642Z,1.00
2019-05-13T15:04:36.327Z,1.10
2019-05-13T15:07:01.751Z,1.33
2019-05-13T15:09:27.490Z,0.93
2019-05-13T15:11:53.074Z,1.07
2019-05-13T15:14:18.522Z,1.00
2019-05-13T15:17:00.156Z,0.97
2019-05-13T15:19:11.997Z,0.90
2019-05-13T15:21:37.599Z,1.17
2019-05-13T15:24:02.941Z,0.80
2019-05-13T15:26:30.973Z,1.13
2019-05-13T15:28:56.817Z,1.13
2019-05-13T15:31:22.314Z,0.80
2019-05-13T15:33:47.842Z,1.30
2019-05-13T15:36:13.254Z,0.90
2019-05-13T15:38:41.250Z,0.77
2019-05-13T15:41:11.908Z,1.10
2019-05-13T15:43:35.460Z,1.60
2019-05-13T15:46:01.777Z,0.67
2019-05-13T15:48:27.546Z,0.80
2019-05-13T15:50:54.065Z,0.80
2019-05-13T15:53:21.633Z,0.70
2019-05-13T15:55:51.598Z,0.80
2019-05-13T15:58:16.747Z,0.80
2019-05-13T16:00:42.181Z,0.60
2019-05-13T16:03:07.505Z,1.07
2019-05-13T16:05:32.927Z,0.90
2019-05-13T16:07:58.489Z,0.70
2019-05-13T16:10:33.410Z,1.13
2019-05-13T16:12:58.745Z,0.87
2019-05-13T16:15:24.093Z,0.80
2019-05-13T16:17:51.954Z,0.70
2019-05-13T16:20:16.630Z,0.83
2019-05-13T16:22:42.380Z,0.80
2019-05-13T16:25:08.926Z,0.70
2019-05-13T16:28:16.783Z,0.80
2019-05-13T16:31:06.932Z,0.87
2019-05-13T16:34:23.896Z,0.90
2019-05-13T16:37:35.169Z,0.90
2019-05-13T16:40:57.857Z,0.80
2019-05-13T16:44:17.049Z,0.93
2019-05-13T16:47:07.747Z,1.00
2019-05-13T17:02:27.312Z,1.10
2019-05-13T17:13:11.836Z,0.90
2019-05-13T17:15:42.643Z,1.00
2019-05-13T17:18:15.292Z,1.00
2019-05-13T17:20:46.290Z,1.00
2019-05-13T17:23:08.419Z,0.93
2019-05-13T17:25:34.002Z,0.90
2019-05-13T17:28:02.874Z,1.10
2019-05-13T17:30:28.067Z,1.07
2019-05-13T17:32:58.363Z,0.97
2019-05-13T17:35:24.655Z,0.80
2019-05-13T17:37:51.293Z,0.90
2019-05-13T17:40:17.572Z,1.20
2019-05-13T17:42:44.021Z,1.00
2019-05-13T17:45:11.326Z,1.13
2019-05-13T17:47:37.742Z,0.90
2019-05-13T17:50:03.926Z,1.10
2019-05-13T17:52:30.305Z,1.07
2019-05-13T17:54:56.471Z,0.90
2019-05-13T17:57:22.926Z,1.00
2019-05-13T17:59:49.270Z,1.10
2019-05-13T18:02:15.608Z,0.90
2019-05-13T18:04:41.701Z,1.20
2019-05-13T18:07:07.010Z,0.93
2019-05-13T18:09:32.398Z,1.10
2019-05-13T18:11:57.866Z,1.23
2019-05-13T18:14:23.234Z,1.10
2019-05-13T18:16:48.616Z,1.30
2019-05-13T18:19:13.954Z,1.00
2019-05-13T18:21:42.375Z,1.30
2019-05-13T18:24:11.748Z,1.13
2019-05-13T18:26:36.582Z,1.10
2019-05-13T18:29:02.073Z,1.03
2019-05-13T18:31:27.415Z,1.40
2019-05-13T18:33:52.914Z,1.00
2019-05-13T18:36:19.448Z,1.20
2019-05-13T18:38:44.909Z,1.00
2019-05-13T18:41:12.006Z,1.30
2019-05-13T18:43:44.418Z,1.20
2019-05-13T18:46:12.226Z,1.00
2019-05-13T18:48:36.765Z,1.50
2019-05-13T18:51:02.141Z,1.00
2019-05-13T18:53:32.070Z,1.47
2019-05-13T18:56:01.749Z,1.57
2019-05-13T18:58:26.299Z,1.17
2019-05-13T19:00:54.167Z,1.30
2019-05-13T19:03:21.577Z,1.33
2019-05-13T19:05:46.506Z,1.43
2019-05-13T19:08:12.379Z,1.30
2019-05-13T19:10:41.362Z,1.33
2019-05-13T19:13:07.140Z,1.40
2019-05-13T19:15:32.523Z,1.10
2019-05-13T19:17:57.918Z,1.73
2019-05-13T19:20:23.253Z,1.70
2019-05-13T19:23:01.072Z,1.27
2019-05-13T19:25:31.476Z,1.40
2019-05-13T19:32:45.499Z,1.20
2019-05-13T19:58:48.056Z,1.57
2019-05-13T20:02:45.191Z,1.50
2019-05-13T20:06:32.331Z,3.00
2019-05-13T20:10:12.164Z,2.97
2019-05-13T20:20:47.484Z,2.60
2019-05-13T20:23:54.617Z,1.90
2019-05-13T20:28:02.290Z,1.90
2019-05-13T20:57:35.748Z,2.10
2019-05-13T21:02:02.450Z,2.50
2019-05-13T21:36:36.161Z,3.03
2019-05-13T21:43:32.282Z,3.23
2019-05-13T21:54:33.509Z,3.07
2019-05-13T22:24:48.503Z,2.13
2019-05-13T22:42:12.591Z,1.63
2019-05-13T22:45:47.521Z,2.00
2019-05-13T23:11:13.075Z,2.17
2019-05-13T23:18:47.501Z,1.80
2019-05-13T23:22:30.745Z,2.30
